sensor_id;sensor_type;location;lat;lon;timestamp;P1;durP1;ratioP1;P2;durP2;ratioP2
7823;SDS011;3957;48.61947800;9.05303100;2023-05-07T00:00:55;3.55;;;3.15;;
7823;SDS011;3957;48.61947800;9.05303100;2023-05-07T00:01:57;4.10;;;3.15;;
7823;SDS011;3957;48.61947800;9.05303100;2023-05-07T00:02:59;4.57;;;3.05;;
7823;SDS011;3957;48.61947800;9.05303100;2023-05-07T00:04:01;4.28;;;3.13;;
7823;SDS011;3957;48.61947800;9.05303100;2023-05-07T00:05:03;3.67;;;2.70;;
7823;SDS011;3957;48.61947800;9.05303100;2023-05-07T00:06:06;3.83;;;2.73;;
7823;SDS011;3957;48.61947800;9.05303100;2023-05-07T00:07:08;2.90;;;2.60;;
7823;SDS011;3957;48.61947800;9.05303100;2023-05-07T00:08:09;2.90;;;2.55;;
7823;SDS011;3957;48.61947800;9.05303100;2023-05-07T00:09:11;4.15;;;2.78;;
7823;SDS011;3957;48.61947800;9.05303100;2023-05-07T00:10:12;2.95;;;2.65;;
7823;SDS011;3957;48.61947800;9.05303100;2023-05-07T00:11:15;3.58;;;2.90;;
7823;SDS011;3957;48.61947800;9.05303100;2023-05-07T00:12:18;4.15;;;3.20;;
7823;SDS011;3957;48.61947800;9.05303100;2023-05-07T00:13:20;3.53;;;2.67;;
7823;SDS011;3957;48.61947800;9.05303100;2023-05-07T00:14:22;2.85;;;2.55;;
7823;SDS011;3957;48.61947800;9.05303100;2023-05-07T00:15:23;3.70;;;3.13;;
7823;SDS011;3957;48.61947800;9.05303100;2023-05-07T00:16:25;3.28;;;2.58;;
7823;SDS011;3957;48.61947800;9.05303100;2023-05-07T00:17:27;3.17;;;2.63;;
7823;SDS011;3957;48.61947800;9.05303100;2023-05-07T00:18:28;2.67;;;2.47;;
7823;SDS011;3957;48.61947800;9.05303100;2023-05-07T00:19:30;3.67;;;2.28;;
7823;SDS011;3957;48.61947800;9.05303100;2023-05-07T00:20:31;3.70;;;2.53;;
7823;SDS011;3957;48.61947800;9.05303100;2023-05-07T00:21:36;2.80;;;2.50;;
7823;SDS011;3957;48.61947800;9.05303100;2023-05-07T00:22:37;3.40;;;2.70;;
7823;SDS011;3957;48.61947800;9.05303100;2023-05-07T00:23:39;2.77;;;2.40;;
7823;SDS011;3957;48.61947800;9.05303100;2023-05-07T00:24:40;2.83;;;2.63;;
7823;SDS011;3957;48.61947800;9.05303100;2023-05-07T00:25:42;3.23;;;2.37;;
7823;SDS011;3957;48.61947800;9.05303100;2023-05-07T00:26:43;2.72;;;2.50;;
7823;SDS011;3957;48.61947800;9.05303100;2023-05-07T00:27:45;2.70;;;2.40;;
7823;SDS011;3957;48.61947800;9.05303100;2023-05-07T00:28:46;2.55;;;2.35;;
7823;SDS011;3957;48.61947800;9.05303100;2023-05-07T00:29:48;2.67;;;2.42;;
7823;SDS011;3957;48.61947800;9.05303100;2023-05-07T00:30:50;3.08;;;2.85;;
7823;SDS011;3957;48.61947800;9.05303100;2023-05-07T00:31:51;3.92;;;2.97;;
7823;SDS011;3957;48.61947800;9.05303100;2023-05-07T00:32:55;3.30;;;2.70;;
7823;SDS011;3957;48.61947800;9.05303100;2023-05-07T00:33:57;3.17;;;2.50;;
7823;SDS011;3957;48.61947800;9.05303100;2023-05-07T00:34:58;3.28;;;2.83;;
7823;SDS011;3957;48.61947800;9.05303100;2023-05-07T00:36:00;2.85;;;2.55;;
7823;SDS011;3957;48.61947800;9.05303100;2023-05-07T00:37:03;4.13;;;2.72;;
7823;SDS011;3957;48.61947800;9.05303100;2023-05-07T00:38:06;3.97;;;2.47;;
7823;SDS011;3957;48.61947800;9.05303100;2023-05-07T00:39:08;3.35;;;2.80;;
7823;SDS011;3957;48.61947800;9.05303100;2023-05-07T00:40:10;3.78;;;2.60;;
7823;SDS011;3957;48.61947800;9.05303100;2023-05-07T00:41:12;2.78;;;2.53;;
7823;SDS011;3957;48.61947800;9.05303100;2023-05-07T00:42:14;2.50;;;2.30;;
7823;SDS011;3957;48.61947800;9.05303100;2023-05-07T00:43:17;3.33;;;2.30;;
7823;SDS011;3957;48.61947800;9.05303100;2023-05-07T00:44:18;5.00;;;2.67;;
7823;SDS011;3957;48.61947800;9.05303100;2023-05-07T00:45:20;3.03;;;2.40;;
7823;SDS011;3957;48.61947800;9.05303100;2023-05-07T00:46:21;3.60;;;2.45;;
7823;SDS011;3957;48.61947800;9.05303100;2023-05-07T00:47:24;2.40;;;2.20;;
7823;SDS011;3957;48.61947800;9.05303100;2023-05-07T00:48:26;3.80;;;2.50;;
7823;SDS011;3957;48.61947800;9.05303100;2023-05-07T00:49:38;2.47;;;2.22;;
7823;SDS011;3957;48.61947800;9.05303100;2023-05-07T00:50:42;3.00;;;2.40;;
7823;SDS011;3957;48.61947800;9.05303100;2023-05-07T00:51:44;2.83;;;2.55;;
7823;SDS011;3957;48.61947800;9.05303100;2023-05-07T00:52:46;3.20;;;2.42;;
7823;SDS011;3957;48.61947800;9.05303100;2023-05-07T00:53:48;2.85;;;2.45;;
7823;SDS011;3957;48.61947800;9.05303100;2023-05-07T00:54:49;2.92;;;2.65;;
7823;SDS011;3957;48.61947800;9.05303100;2023-05-07T00:55:51;2.50;;;2.30;;
7823;SDS011;3957;48.61947800;9.05303100;2023-05-07T00:56:53;2.50;;;2.20;;
7823;SDS011;3957;48.61947800;9.05303100;2023-05-07T00:57:55;3.85;;;2.13;;
7823;SDS011;3957;48.61947800;9.05303100;2023-05-07T00:58:57;2.85;;;2.55;;
7823;SDS011;3957;48.61947800;9.05303100;2023-05-07T00:59:59;2.97;;;2.58;;
7823;SDS011;3957;48.61947800;9.05303100;2023-05-07T01:01:01;2.90;;;2.60;;
7823;SDS011;3957;48.61947800;9.05303100;2023-05-07T01:02:03;2.83;;;2.47;;
7823;SDS011;3957;48.61947800;9.05303100;2023-05-07T01:03:05;3.08;;;2.35;;
7823;SDS011;3957;48.61947800;9.05303100;2023-05-07T01:04:07;2.90;;;2.40;;
7823;SDS011;3957;48.61947800;9.05303100;2023-05-07T01:05:11;2.83;;;2.63;;
7823;SDS011;3957;48.61947800;9.05303100;2023-05-07T01:06:15;3.40;;;2.22;;
7823;SDS011;3957;48.61947800;9.05303100;2023-05-07T01:07:18;3.10;;;2.80;;
7823;SDS011;3957;48.61947800;9.05303100;2023-05-07T01:08:21;3.95;;;2.55;;
7823;SDS011;3957;48.61947800;9.05303100;2023-05-07T01:09:24;3.00;;;2.53;;
7823;SDS011;3957;48.61947800;9.05303100;2023-05-07T01:10:26;2.95;;;2.35;;
7823;SDS011;3957;48.61947800;9.05303100;2023-05-07T01:11:28;2.83;;;2.63;;
7823;SDS011;3957;48.61947800;9.05303100;2023-05-07T01:12:30;2.58;;;2.35;;
7823;SDS011;3957;48.61947800;9.05303100;2023-05-07T01:13:33;2.65;;;2.45;;
7823;SDS011;3957;48.61947800;9.05303100;2023-05-07T01:14:37;2.60;;;2.40;;
7823;SDS011;3957;48.61947800;9.05303100;2023-05-07T01:15:38;2.70;;;2.50;;
7823;SDS011;3957;48.61947800;9.05303100;2023-05-07T01:16:42;3.47;;;2.78;;
7823;SDS011;3957;48.61947800;9.05303100;2023-05-07T01:17:44;3.38;;;2.80;;
7823;SDS011;3957;48.61947800;9.05303100;2023-05-07T01:18:52;2.70;;;2.45;;
7823;SDS011;3957;48.61947800;9.05303100;2023-05-07T01:19:53;2.40;;;2.20;;
7823;SDS011;3957;48.61947800;9.05303100;2023-05-07T01:20:56;4.68;;;2.63;;
7823;SDS011;3957;48.61947800;9.05303100;2023-05-07T01:22:07;3.38;;;2.50;;
7823;SDS011;3957;48.61947800;9.05303100;2023-05-07T01:23:23;2.70;;;2.50;;
7823;SDS011;3957;48.61947800;9.05303100;2023-05-07T01:24:26;2.55;;;2.30;;
7823;SDS011;3957;48.61947800;9.05303100;2023-05-07T01:25:28;2.80;;;2.60;;
7823;SDS011;3957;48.61947800;9.05303100;2023-05-07T01:26:32;2.72;;;2.33;;
7823;SDS011;3957;48.61947800;9.05303100;2023-05-07T01:27:34;3.00;;;2.63;;
7823;SDS011;3957;48.61947800;9.05303100;2023-05-07T01:28:38;2.70;;;2.50;;
7823;SDS011;3957;48.61947800;9.05303100;2023-05-07T01:29:40;3.85;;;2.58;;
7823;SDS011;3957;48.61947800;9.05303100;2023-05-07T01:30:42;2.63;;;2.40;;
7823;SDS011;3957;48.61947800;9.05303100;2023-05-07T01:31:48;3.28;;;2.95;;
7823;SDS011;3957;48.61947800;9.05303100;2023-05-07T01:32:57;2.92;;;2.63;;
7823;SDS011;3957;48.61947800;9.05303100;2023-05-07T01:34:05;2.90;;;2.50;;
7823;SDS011;3957;48.61947800;9.05303100;2023-05-07T01:35:11;3.90;;;2.50;;
7823;SDS011;3957;48.61947800;9.05303100;2023-05-07T01:36:14;3.03;;;2.72;;
7823;SDS011;3957;48.61947800;9.05303100;2023-05-07T01:37:18;3.30;;;2.63;;
7823;SDS011;3957;48.61947800;9.05303100;2023-05-07T01:38:22;3.17;;;2.88;;
7823;SDS011;3957;48.61947800;9.05303100;2023-05-07T01:39:25;3.25;;;2.70;;
7823;SDS011;3957;48.61947800;9.05303100;2023-05-07T01:40:30;4.15;;;3.22;;
7823;SDS011;3957;48.61947800;9.05303100;2023-05-07T01:41:32;3.20;;;2.90;;
7823;SDS011;3957;48.61947800;9.05303100;2023-05-07T01:42:33;3.63;;;3.20;;
7823;SDS011;3957;48.61947800;9.05303100;2023-05-07T01:43:35;3.47;;;2.92;;
7823;SDS011;3957;48.61947800;9.05303100;2023-05-07T01:44:37;3.20;;;2.85;;
7823;SDS011;3957;48.61947800;9.05303100;2023-05-07T01:45:39;3.40;;;3.10;;
7823;SDS011;3957;48.61947800;9.05303100;2023-05-07T01:46:41;5.22;;;3.03;;
7823;SDS011;3957;48.61947800;9.05303100;2023-05-07T01:47:43;3.30;;;3.00;;
7823;SDS011;3957;48.61947800;9.05303100;2023-05-07T01:48:46;3.08;;;2.22;;
7823;SDS011;3957;48.61947800;9.05303100;2023-05-07T01:49:48;3.28;;;2.70;;
7823;SDS011;3957;48.61947800;9.05303100;2023-05-07T01:50:50;3.08;;;2.40;;
7823;SDS011;3957;48.61947800;9.05303100;2023-05-07T01:51:52;3.42;;;2.60;;
7823;SDS011;3957;48.61947800;9.05303100;2023-05-07T01:52:54;3.00;;;2.60;;
7823;SDS011;3957;48.61947800;9.05303100;2023-05-07T01:53:57;2.75;;;2.40;;
7823;SDS011;3957;48.61947800;9.05303100;2023-05-07T01:54:59;3.00;;;2.70;;
7823;SDS011;3957;48.61947800;9.05303100;2023-05-07T01:56:00;3.55;;;2.97;;
7823;SDS011;3957;48.61947800;9.05303100;2023-05-07T01:57:02;2.95;;;2.55;;
7823;SDS011;3957;48.61947800;9.05303100;2023-05-07T01:58:04;3.10;;;2.72;;
7823;SDS011;3957;48.61947800;9.05303100;2023-05-07T01:59:06;3.47;;;2.90;;
7823;SDS011;3957;48.61947800;9.05303100;2023-05-07T02:00:08;3.53;;;3.08;;
7823;SDS011;3957;48.61947800;9.05303100;2023-05-07T02:01:17;3.40;;;2.40;;
7823;SDS011;3957;48.61947800;9.05303100;2023-05-07T02:02:19;3.28;;;2.67;;
7823;SDS011;3957;48.61947800;9.05303100;2023-05-07T02:03:22;3.72;;;2.85;;
7823;SDS011;3957;48.61947800;9.05303100;2023-05-07T02:04:31;4.45;;;2.92;;
7823;SDS011;3957;48.61947800;9.05303100;2023-05-07T02:05:33;3.40;;;2.90;;
7823;SDS011;3957;48.61947800;9.05303100;2023-05-07T02:06:40;3.63;;;3.10;;
7823;SDS011;3957;48.61947800;9.05303100;2023-05-07T02:07:43;2.85;;;2.50;;
7823;SDS011;3957;48.61947800;9.05303100;2023-05-07T02:08:47;3.42;;;2.97;;
7823;SDS011;3957;48.61947800;9.05303100;2023-05-07T02:09:49;2.95;;;2.60;;
7823;SDS011;3957;48.61947800;9.05303100;2023-05-07T02:10:51;3.13;;;2.80;;
7823;SDS011;3957;48.61947800;9.05303100;2023-05-07T02:11:53;3.15;;;2.75;;
7823;SDS011;3957;48.61947800;9.05303100;2023-05-07T02:12:55;3.65;;;2.90;;
7823;SDS011;3957;48.61947800;9.05303100;2023-05-07T02:13:58;5.75;;;3.08;;
7823;SDS011;3957;48.61947800;9.05303100;2023-05-07T02:15:00;3.70;;;2.92;;
7823;SDS011;3957;48.61947800;9.05303100;2023-05-07T02:16:01;2.65;;;2.30;;
7823;SDS011;3957;48.61947800;9.05303100;2023-05-07T02:17:04;3.22;;;2.92;;
7823;SDS011;3957;48.61947800;9.05303100;2023-05-07T02:18:07;4.15;;;3.30;;
7823;SDS011;3957;48.61947800;9.05303100;2023-05-07T02:19:10;3.30;;;3.00;;
7823;SDS011;3957;48.61947800;9.05303100;2023-05-07T02:20:12;3.00;;;2.70;;
7823;SDS011;3957;48.61947800;9.05303100;2023-05-07T02:21:15;3.45;;;3.13;;
7823;SDS011;3957;48.61947800;9.05303100;2023-05-07T02:22:17;4.70;;;3.20;;
7823;SDS011;3957;48.61947800;9.05303100;2023-05-07T02:23:19;3.85;;;3.00;;
7823;SDS011;3957;48.61947800;9.05303100;2023-05-07T02:24:20;3.20;;;2.90;;
7823;SDS011;3957;48.61947800;9.05303100;2023-05-07T02:25:22;3.75;;;2.67;;
7823;SDS011;3957;48.61947800;9.05303100;2023-05-07T02:26:24;3.38;;;2.90;;
7823;SDS011;3957;48.61947800;9.05303100;2023-05-07T02:27:27;4.20;;;3.53;;
7823;SDS011;3957;48.61947800;9.05303100;2023-05-07T02:28:29;3.10;;;2.80;;
7823;SDS011;3957;48.61947800;9.05303100;2023-05-07T02:29:35;3.72;;;3.33;;
7823;SDS011;3957;48.61947800;9.05303100;2023-05-07T02:30:37;3.20;;;2.90;;
7823;SDS011;3957;48.61947800;9.05303100;2023-05-07T02:31:39;3.20;;;2.88;;
7823;SDS011;3957;48.61947800;9.05303100;2023-05-07T02:32:41;3.40;;;2.95;;
7823;SDS011;3957;48.61947800;9.05303100;2023-05-07T02:33:42;3.58;;;3.28;;
7823;SDS011;3957;48.61947800;9.05303100;2023-05-07T02:34:44;3.50;;;3.15;;
7823;SDS011;3957;48.61947800;9.05303100;2023-05-07T02:35:46;3.75;;;3.38;;
7823;SDS011;3957;48.61947800;9.05303100;2023-05-07T02:36:49;3.42;;;3.13;;
7823;SDS011;3957;48.61947800;9.05303100;2023-05-07T02:37:55;4.82;;;3.30;;
7823;SDS011;3957;48.61947800;9.05303100;2023-05-07T02:38:58;4.20;;;3.20;;
7823;SDS011;3957;48.61947800;9.05303100;2023-05-07T02:40:01;5.35;;;3.60;;
7823;SDS011;3957;48.61947800;9.05303100;2023-05-07T02:41:05;4.53;;;3.40;;
7823;SDS011;3957;48.61947800;9.05303100;2023-05-07T02:42:07;4.57;;;3.13;;
7823;SDS011;3957;48.61947800;9.05303100;2023-05-07T02:43:08;3.55;;;3.20;;
7823;SDS011;3957;48.61947800;9.05303100;2023-05-07T02:44:11;6.68;;;3.83;;
7823;SDS011;3957;48.61947800;9.05303100;2023-05-07T02:45:13;4.32;;;3.28;;
7823;SDS011;3957;48.61947800;9.05303100;2023-05-07T02:46:16;5.18;;;3.65;;
7823;SDS011;3957;48.61947800;9.05303100;2023-05-07T02:47:22;3.95;;;3.40;;
7823;SDS011;3957;48.61947800;9.05303100;2023-05-07T02:48:24;4.88;;;3.80;;
7823;SDS011;3957;48.61947800;9.05303100;2023-05-07T02:49:26;4.00;;;3.38;;
7823;SDS011;3957;48.61947800;9.05303100;2023-05-07T02:50:27;4.15;;;3.40;;
7823;SDS011;3957;48.61947800;9.05303100;2023-05-07T02:51:29;5.63;;;3.53;;
7823;SDS011;3957;48.61947800;9.05303100;2023-05-07T02:52:35;4.43;;;3.75;;
7823;SDS011;3957;48.61947800;9.05303100;2023-05-07T02:53:36;3.70;;;3.38;;
7823;SDS011;3957;48.61947800;9.05303100;2023-05-07T02:54:38;5.15;;;3.60;;
7823;SDS011;3957;48.61947800;9.05303100;2023-05-07T02:55:39;5.32;;;3.42;;
7823;SDS011;3957;48.61947800;9.05303100;2023-05-07T02:56:41;6.10;;;4.00;;
7823;SDS011;3957;48.61947800;9.05303100;2023-05-07T02:57:43;4.82;;;3.90;;
7823;SDS011;3957;48.61947800;9.05303100;2023-05-07T02:58:45;4.63;;;4.13;;
7823;SDS011;3957;48.61947800;9.05303100;2023-05-07T02:59:48;4.10;;;3.60;;
7823;SDS011;3957;48.61947800;9.05303100;2023-05-07T03:00:52;5.30;;;3.70;;
7823;SDS011;3957;48.61947800;9.05303100;2023-05-07T03:02:04;6.32;;;4.30;;
7823;SDS011;3957;48.61947800;9.05303100;2023-05-07T03:03:08;4.78;;;4.18;;
7823;SDS011;3957;48.61947800;9.05303100;2023-05-07T03:04:10;5.25;;;3.83;;
7823;SDS011;3957;48.61947800;9.05303100;2023-05-07T03:05:12;6.80;;;3.40;;
7823;SDS011;3957;48.61947800;9.05303100;2023-05-07T03:06:15;4.43;;;3.35;;
7823;SDS011;3957;48.61947800;9.05303100;2023-05-07T03:07:17;6.72;;;4.30;;
7823;SDS011;3957;48.61947800;9.05303100;2023-05-07T03:08:18;8.80;;;4.78;;
7823;SDS011;3957;48.61947800;9.05303100;2023-05-07T03:09:20;7.43;;;4.63;;
7823;SDS011;3957;48.61947800;9.05303100;2023-05-07T03:10:22;6.15;;;4.35;;
7823;SDS011;3957;48.61947800;9.05303100;2023-05-07T03:11:23;5.07;;;3.85;;
7823;SDS011;3957;48.61947800;9.05303100;2023-05-07T03:12:25;5.15;;;4.00;;
7823;SDS011;3957;48.61947800;9.05303100;2023-05-07T03:13:26;4.97;;;3.72;;
7823;SDS011;3957;48.61947800;9.05303100;2023-05-07T03:14:28;5.78;;;4.20;;
7823;SDS011;3957;48.61947800;9.05303100;2023-05-07T03:15:29;4.57;;;4.00;;
7823;SDS011;3957;48.61947800;9.05303100;2023-05-07T03:16:31;3.85;;;3.45;;
7823;SDS011;3957;48.61947800;9.05303100;2023-05-07T03:17:33;4.25;;;3.85;;
7823;SDS011;3957;48.61947800;9.05303100;2023-05-07T03:18:35;5.03;;;4.03;;
7823;SDS011;3957;48.61947800;9.05303100;2023-05-07T03:19:37;4.80;;;3.90;;
7823;SDS011;3957;48.61947800;9.05303100;2023-05-07T03:20:38;4.38;;;3.88;;
7823;SDS011;3957;48.61947800;9.05303100;2023-05-07T03:21:40;3.88;;;3.47;;
7823;SDS011;3957;48.61947800;9.05303100;2023-05-07T03:22:41;5.68;;;4.03;;
7823;SDS011;3957;48.61947800;9.05303100;2023-05-07T03:23:43;4.13;;;3.75;;
7823;SDS011;3957;48.61947800;9.05303100;2023-05-07T03:24:44;4.20;;;3.80;;
7823;SDS011;3957;48.61947800;9.05303100;2023-05-07T03:25:46;3.70;;;3.40;;
7823;SDS011;3957;48.61947800;9.05303100;2023-05-07T03:26:47;3.88;;;3.45;;
7823;SDS011;3957;48.61947800;9.05303100;2023-05-07T03:27:49;3.83;;;3.53;;
7823;SDS011;3957;48.61947800;9.05303100;2023-05-07T03:28:54;4.78;;;3.63;;
7823;SDS011;3957;48.61947800;9.05303100;2023-05-07T03:29:56;5.22;;;3.60;;
7823;SDS011;3957;48.61947800;9.05303100;2023-05-07T03:30:58;3.55;;;3.25;;
7823;SDS011;3957;48.61947800;9.05303100;2023-05-07T03:32:00;4.60;;;3.75;;
7823;SDS011;3957;48.61947800;9.05303100;2023-05-07T03:33:02;4.85;;;3.75;;
7823;SDS011;3957;48.61947800;9.05303100;2023-05-07T03:34:04;3.97;;;3.65;;
7823;SDS011;3957;48.61947800;9.05303100;2023-05-07T03:35:05;3.90;;;3.50;;
7823;SDS011;3957;48.61947800;9.05303100;2023-05-07T03:36:08;4.30;;;3.60;;
7823;SDS011;3957;48.61947800;9.05303100;2023-05-07T03:37:09;5.05;;;3.60;;
7823;SDS011;3957;48.61947800;9.05303100;2023-05-07T03:38:11;4.37;;;3.63;;
7823;SDS011;3957;48.61947800;9.05303100;2023-05-07T03:39:13;4.30;;;3.90;;
7823;SDS011;3957;48.61947800;9.05303100;2023-05-07T03:40:15;4.80;;;3.38;;
7823;SDS011;3957;48.61947800;9.05303100;2023-05-07T03:41:21;3.75;;;3.42;;
7823;SDS011;3957;48.61947800;9.05303100;2023-05-07T03:42:23;5.22;;;4.28;;
7823;SDS011;3957;48.61947800;9.05303100;2023-05-07T03:43:26;4.57;;;3.92;;
7823;SDS011;3957;48.61947800;9.05303100;2023-05-07T03:44:35;4.05;;;3.63;;
7823;SDS011;3957;48.61947800;9.05303100;2023-05-07T03:45:37;4.85;;;4.22;;
7823;SDS011;3957;48.61947800;9.05303100;2023-05-07T03:46:44;4.72;;;4.25;;
7823;SDS011;3957;48.61947800;9.05303100;2023-05-07T03:47:46;4.80;;;4.35;;
7823;SDS011;3957;48.61947800;9.05303100;2023-05-07T03:48:51;4.40;;;4.00;;
7823;SDS011;3957;48.61947800;9.05303100;2023-05-07T03:49:55;4.10;;;3.70;;
7823;SDS011;3957;48.61947800;9.05303100;2023-05-07T03:50:58;3.75;;;3.45;;
7823;SDS011;3957;48.61947800;9.05303100;2023-05-07T03:52:04;4.25;;;3.85;;
7823;SDS011;3957;48.61947800;9.05303100;2023-05-07T03:53:07;3.90;;;3.33;;
7823;SDS011;3957;48.61947800;9.05303100;2023-05-07T03:54:12;3.63;;;3.15;;
7823;SDS011;3957;48.61947800;9.05303100;2023-05-07T03:55:17;5.10;;;3.60;;
7823;SDS011;3957;48.61947800;9.05303100;2023-05-07T03:56:24;5.78;;;3.65;;
7823;SDS011;3957;48.61947800;9.05303100;2023-05-07T03:57:29;4.75;;;3.45;;
7823;SDS011;3957;48.61947800;9.05303100;2023-05-07T03:58:32;4.72;;;3.17;;
7823;SDS011;3957;48.61947800;9.05303100;2023-05-07T03:59:39;4.10;;;3.70;;
7823;SDS011;3957;48.61947800;9.05303100;2023-05-07T04:00:42;3.88;;;3.20;;
7823;SDS011;3957;48.61947800;9.05303100;2023-05-07T04:01:54;3.97;;;3.58;;
7823;SDS011;3957;48.61947800;9.05303100;2023-05-07T04:02:58;4.20;;;3.80;;
7823;SDS011;3957;48.61947800;9.05303100;2023-05-07T04:04:03;3.90;;;3.40;;
7823;SDS011;3957;48.61947800;9.05303100;2023-05-07T04:05:06;4.03;;;3.63;;
7823;SDS011;3957;48.61947800;9.05303100;2023-05-07T04:06:08;4.50;;;3.50;;
7823;SDS011;3957;48.61947800;9.05303100;2023-05-07T04:07:11;3.72;;;3.33;;
7823;SDS011;3957;48.61947800;9.05303100;2023-05-07T04:08:16;3.70;;;3.40;;
7823;SDS011;3957;48.61947800;9.05303100;2023-05-07T04:09:23;3.60;;;3.30;;
7823;SDS011;3957;48.61947800;9.05303100;2023-05-07T04:10:25;3.22;;;2.97;;
7823;SDS011;3957;48.61947800;9.05303100;2023-05-07T04:11:29;4.07;;;2.90;;
7823;SDS011;3957;48.61947800;9.05303100;2023-05-07T04:12:32;4.00;;;2.67;;
7823;SDS011;3957;48.61947800;9.05303100;2023-05-07T04:13:33;3.40;;;3.10;;
7823;SDS011;3957;48.61947800;9.05303100;2023-05-07T04:14:36;3.75;;;3.38;;
7823;SDS011;3957;48.61947800;9.05303100;2023-05-07T04:15:38;3.75;;;3.38;;
7823;SDS011;3957;48.61947800;9.05303100;2023-05-07T04:16:43;4.07;;;3.17;;
7823;SDS011;3957;48.61947800;9.05303100;2023-05-07T04:17:45;3.42;;;3.13;;
7823;SDS011;3957;48.61947800;9.05303100;2023-05-07T04:18:48;3.38;;;2.88;;
7823;SDS011;3957;48.61947800;9.05303100;2023-05-07T04:19:51;3.55;;;3.25;;
7823;SDS011;3957;48.61947800;9.05303100;2023-05-07T04:20:52;3.22;;;2.92;;
7823;SDS011;3957;48.61947800;9.05303100;2023-05-07T04:21:55;4.53;;;3.47;;
7823;SDS011;3957;48.61947800;9.05303100;2023-05-07T04:22:57;3.35;;;3.05;;
7823;SDS011;3957;48.61947800;9.05303100;2023-05-07T04:23:59;3.90;;;3.13;;
7823;SDS011;3957;48.61947800;9.05303100;2023-05-07T04:25:02;4.13;;;3.20;;
7823;SDS011;3957;48.61947800;9.05303100;2023-05-07T04:26:06;4.28;;;3.03;;
7823;SDS011;3957;48.61947800;9.05303100;2023-05-07T04:27:13;4.07;;;3.08;;
7823;SDS011;3957;48.61947800;9.05303100;2023-05-07T04:28:14;4.28;;;2.80;;
7823;SDS011;3957;48.61947800;9.05303100;2023-05-07T04:29:16;4.25;;;2.78;;
7823;SDS011;3957;48.61947800;9.05303100;2023-05-07T04:30:18;3.00;;;2.80;;
7823;SDS011;3957;48.61947800;9.05303100;2023-05-07T04:31:20;3.28;;;2.97;;
7823;SDS011;3957;48.61947800;9.05303100;2023-05-07T04:32:26;3.08;;;2.78;;
7823;SDS011;3957;48.61947800;9.05303100;2023-05-07T04:33:27;3.42;;;3.13;;
7823;SDS011;3957;48.61947800;9.05303100;2023-05-07T04:34:31;4.95;;;2.92;;
7823;SDS011;3957;48.61947800;9.05303100;2023-05-07T04:35:34;4.13;;;3.22;;
7823;SDS011;3957;48.61947800;9.05303100;2023-05-07T04:36:38;3.35;;;2.95;;
7823;SDS011;3957;48.61947800;9.05303100;2023-05-07T04:37:44;4.15;;;3.28;;
7823;SDS011;3957;48.61947800;9.05303100;2023-05-07T04:38:47;3.40;;;3.10;;
7823;SDS011;3957;48.61947800;9.05303100;2023-05-07T04:39:50;4.47;;;3.78;;
7823;SDS011;3957;48.61947800;9.05303100;2023-05-07T04:40:52;3.87;;;3.37;;
7823;SDS011;3957;48.61947800;9.05303100;2023-05-07T04:41:57;3.85;;;3.55;;
7823;SDS011;3957;48.61947800;9.05303100;2023-05-07T04:42:59;4.68;;;3.65;;
7823;SDS011;3957;48.61947800;9.05303100;2023-05-07T04:44:03;4.97;;;3.50;;
7823;SDS011;3957;48.61947800;9.05303100;2023-05-07T04:45:06;3.75;;;3.33;;
7823;SDS011;3957;48.61947800;9.05303100;2023-05-07T04:46:11;3.92;;;3.50;;
7823;SDS011;3957;48.61947800;9.05303100;2023-05-07T04:47:13;4.25;;;3.55;;
7823;SDS011;3957;48.61947800;9.05303100;2023-05-07T04:48:15;4.10;;;3.30;;
7823;SDS011;3957;48.61947800;9.05303100;2023-05-07T04:49:17;4.40;;;3.58;;
7823;SDS011;3957;48.61947800;9.05303100;2023-05-07T04:50:19;3.90;;;3.23;;
7823;SDS011;3957;48.61947800;9.05303100;2023-05-07T04:51:22;4.65;;;3.55;;
7823;SDS011;3957;48.61947800;9.05303100;2023-05-07T04:52:24;4.40;;;3.28;;
7823;SDS011;3957;48.61947800;9.05303100;2023-05-07T04:53:27;3.70;;;3.10;;
7823;SDS011;3957;48.61947800;9.05303100;2023-05-07T04:54:30;4.07;;;3.55;;
7823;SDS011;3957;48.61947800;9.05303100;2023-05-07T04:55:32;3.67;;;3.20;;
7823;SDS011;3957;48.61947800;9.05303100;2023-05-07T04:56:33;4.00;;;3.22;;
7823;SDS011;3957;48.61947800;9.05303100;2023-05-07T04:57:36;3.95;;;3.30;;
7823;SDS011;3957;48.61947800;9.05303100;2023-05-07T04:58:38;4.30;;;3.90;;
7823;SDS011;3957;48.61947800;9.05303100;2023-05-07T04:59:41;4.95;;;3.25;;
7823;SDS011;3957;48.61947800;9.05303100;2023-05-07T05:00:42;5.20;;;4.20;;
7823;SDS011;3957;48.61947800;9.05303100;2023-05-07T05:01:44;4.68;;;3.35;;
7823;SDS011;3957;48.61947800;9.05303100;2023-05-07T05:02:47;3.97;;;3.40;;
7823;SDS011;3957;48.61947800;9.05303100;2023-05-07T05:03:52;3.58;;;3.25;;
7823;SDS011;3957;48.61947800;9.05303100;2023-05-07T05:04:54;4.35;;;3.15;;
7823;SDS011;3957;48.61947800;9.05303100;2023-05-07T05:05:57;4.75;;;2.80;;
7823;SDS011;3957;48.61947800;9.05303100;2023-05-07T05:07:03;4.22;;;2.90;;
7823;SDS011;3957;48.61947800;9.05303100;2023-05-07T05:08:05;2.80;;;2.40;;
7823;SDS011;3957;48.61947800;9.05303100;2023-05-07T05:09:10;3.28;;;2.60;;
7823;SDS011;3957;48.61947800;9.05303100;2023-05-07T05:10:14;4.30;;;3.00;;
7823;SDS011;3957;48.61947800;9.05303100;2023-05-07T05:11:18;2.92;;;2.38;;
7823;SDS011;3957;48.61947800;9.05303100;2023-05-07T05:12:19;3.00;;;2.70;;
7823;SDS011;3957;48.61947800;9.05303100;2023-05-07T05:13:21;3.90;;;2.97;;
7823;SDS011;3957;48.61947800;9.05303100;2023-05-07T05:14:23;2.58;;;2.38;;
7823;SDS011;3957;48.61947800;9.05303100;2023-05-07T05:15:25;2.80;;;2.60;;
7823;SDS011;3957;48.61947800;9.05303100;2023-05-07T05:16:27;2.90;;;2.33;;
7823;SDS011;3957;48.61947800;9.05303100;2023-05-07T05:17:28;2.20;;;1.95;;
7823;SDS011;3957;48.61947800;9.05303100;2023-05-07T05:18:30;3.05;;;2.50;;
7823;SDS011;3957;48.61947800;9.05303100;2023-05-07T05:19:32;2.78;;;2.40;;
7823;SDS011;3957;48.61947800;9.05303100;2023-05-07T05:20:33;3.45;;;2.70;;
7823;SDS011;3957;48.61947800;9.05303100;2023-05-07T05:21:35;5.32;;;2.60;;
7823;SDS011;3957;48.61947800;9.05303100;2023-05-07T05:22:41;3.53;;;2.83;;
7823;SDS011;3957;48.61947800;9.05303100;2023-05-07T05:23:45;3.67;;;2.63;;
7823;SDS011;3957;48.61947800;9.05303100;2023-05-07T05:24:49;3.20;;;2.90;;
7823;SDS011;3957;48.61947800;9.05303100;2023-05-07T05:25:54;3.28;;;2.80;;
7823;SDS011;3957;48.61947800;9.05303100;2023-05-07T05:26:59;2.45;;;2.25;;
7823;SDS011;3957;48.61947800;9.05303100;2023-05-07T05:28:04;2.60;;;2.15;;
7823;SDS011;3957;48.61947800;9.05303100;2023-05-07T05:29:08;2.60;;;2.30;;
7823;SDS011;3957;48.61947800;9.05303100;2023-05-07T05:30:12;2.30;;;2.10;;
7823;SDS011;3957;48.61947800;9.05303100;2023-05-07T05:31:16;3.00;;;2.20;;
7823;SDS011;3957;48.61947800;9.05303100;2023-05-07T05:32:18;3.15;;;2.55;;
7823;SDS011;3957;48.61947800;9.05303100;2023-05-07T05:33:19;2.33;;;2.03;;
7823;SDS011;3957;48.61947800;9.05303100;2023-05-07T05:34:21;2.55;;;2.28;;
7823;SDS011;3957;48.61947800;9.05303100;2023-05-07T05:35:23;3.50;;;2.28;;
7823;SDS011;3957;48.61947800;9.05303100;2023-05-07T05:36:24;4.15;;;2.53;;
7823;SDS011;3957;48.61947800;9.05303100;2023-05-07T05:37:29;2.55;;;2.17;;
7823;SDS011;3957;48.61947800;9.05303100;2023-05-07T05:38:34;2.55;;;1.88;;